createdAt,value
2023-05-04T00:00:54.297Z,102005.03
2023-05-04T00:03:33.906Z,102021.84
2023-05-04T00:06:14.299Z,102015.53
2023-05-04T00:09:15.512Z,102017.28
2023-05-04T00:12:19.071Z,102021.66
2023-05-04T00:14:46.053Z,102010.13
2023-05-04T00:17:13.045Z,102016.28
2023-05-04T00:19:54.553Z,102018.94
2023-05-04T00:22:30.375Z,102013.56
2023-05-04T00:24:57.187Z,102013.53
2023-05-04T00:27:23.992Z,102008.19
2023-05-04T00:29:50.765Z,102005.50
2023-05-04T00:32:17.550Z,102008.13
2023-05-04T00:34:46.171Z,102001.91
2023-05-04T00:37:12.981Z,101996.59
2023-05-04T00:39:39.795Z,101989.41
2023-05-04T00:42:06.736Z,101999.16
2023-05-04T00:44:34.690Z,101996.47
2023-05-04T00:47:03.280Z,101992.84
2023-05-04T00:49:30.152Z,101997.28
2023-05-04T00:51:58.213Z,102000.78
2023-05-04T00:54:25.831Z,101991.00
2023-05-04T00:56:53.189Z,101994.53
2023-05-04T00:59:22.131Z,101990.03
2023-05-04T01:01:48.876Z,101990.00
2023-05-04T01:04:16.465Z,101982.00
2023-05-04T01:07:04.416Z,101978.38
2023-05-04T01:10:02.013Z,101977.38
2023-05-04T01:12:49.098Z,101974.66
2023-05-04T01:15:16.220Z,101975.50
2023-05-04T01:17:43.080Z,101985.19
2023-05-04T01:20:10.261Z,101981.66
2023-05-04T01:22:38.286Z,101982.47
2023-05-04T01:25:06.571Z,101974.44
2023-05-04T01:27:48.651Z,101978.81
2023-05-04T01:30:23.526Z,101976.13
2023-05-04T01:32:51.383Z,101974.31
2023-05-04T01:35:18.303Z,101978.66
2023-05-04T01:37:46.267Z,101969.75
2023-05-04T01:40:13.050Z,101975.88
2023-05-04T01:42:39.951Z,101977.66
2023-05-04T01:45:08.064Z,101978.50
2023-05-04T01:47:34.858Z,101976.72
2023-05-04T01:50:02.012Z,101979.38
2023-05-04T01:52:29.100Z,101979.34
2023-05-04T01:54:55.893Z,101973.13
2023-05-04T01:57:24.004Z,101967.78
2023-05-04T01:59:50.881Z,101980.19
2023-05-04T02:02:17.713Z,101981.94
2023-05-04T02:04:44.541Z,101981.88
2023-05-04T02:07:11.384Z,101980.13
2023-05-04T02:09:38.233Z,101988.09
2023-05-04T02:12:10.685Z,101983.56
2023-05-04T02:15:06.478Z,101987.09
2023-05-04T02:18:26.781Z,101980.84
2023-05-04T02:21:04.413Z,101979.03
2023-05-04T02:27:22.319Z,101982.47
2023-05-04T02:30:30.207Z,101975.38
2023-05-04T02:41:11.866Z,101982.19
2023-05-04T02:43:55.034Z,101978.63
2023-05-04T02:46:41.243Z,101981.22
2023-05-04T02:52:44.933Z,101971.34
2023-05-04T02:55:11.852Z,101970.38
2023-05-04T02:57:51.262Z,101966.81
2023-05-04T03:00:25.817Z,101975.66
2023-05-04T03:03:01.290Z,101962.34
2023-05-04T03:05:40.405Z,101980.03
2023-05-04T03:08:24.433Z,101967.63
2023-05-04T03:11:00.186Z,101965.84
2023-05-04T03:13:32.628Z,101970.25
2023-05-04T03:16:02.197Z,101964.91
2023-05-04T03:21:13.942Z,101965.69
2023-05-04T03:23:40.983Z,101956.81
2023-05-04T03:26:09.857Z,101962.09
2023-05-04T03:28:36.641Z,101960.28
2023-05-04T03:31:03.393Z,101953.22
2023-05-04T03:33:30.274Z,101950.53
2023-05-04T03:35:57.055Z,101947.84
2023-05-04T03:38:23.881Z,101956.66
2023-05-04T03:40:50.639Z,101959.31
2023-05-04T03:43:17.450Z,101953.06
2023-05-04T03:45:44.246Z,101956.56
2023-05-04T03:48:11.195Z,101953.88
2023-05-04T03:50:38.250Z,101952.97
2023-05-04T03:53:07.647Z,101948.53
2023-05-04T03:55:34.408Z,101947.59
2023-05-04T03:58:01.330Z,101952.00
2023-05-04T04:00:28.101Z,101944.91
2023-05-04T04:02:54.896Z,101949.28
2023-05-04T04:05:21.778Z,101941.34
2023-05-04T04:07:48.561Z,101939.53
2023-05-04T04:10:15.440Z,101939.53
2023-05-04T04:12:42.321Z,101939.53
2023-05-04T04:15:09.582Z,101937.75
2023-05-04T04:17:36.351Z,101937.75
2023-05-04T04:20:03.662Z,101934.25
2023-05-04T04:22:30.612Z,101935.16
2023-05-04T04:24:57.488Z,101927.16
2023-05-04T04:27:24.554Z,101922.78
2023-05-04T04:29:51.473Z,101927.19
2023-05-04T04:32:18.798Z,101932.53
2023-05-04T04:34:45.559Z,101939.63
2023-05-04T04:37:14.814Z,101936.13
2023-05-04T04:39:42.144Z,101931.78
2023-05-04T04:42:09.011Z,101934.47
2023-05-04T04:44:35.906Z,101932.75
2023-05-04T04:47:06.541Z,101934.59
2023-05-04T04:49:33.334Z,101929.34
2023-05-04T04:52:01.656Z,101925.88
2023-05-04T04:54:29.285Z,101934.81
2023-05-04T04:56:56.178Z,101934.84
2023-05-04T04:59:24.762Z,101929.63
2023-05-04T05:01:51.596Z,101926.19
2023-05-04T05:04:19.630Z,101935.13
2023-05-04T05:06:46.839Z,101933.44
2023-05-04T05:09:14.261Z,101931.81
2023-05-04T05:11:41.024Z,101926.66
2023-05-04T05:14:07.808Z,101926.84
2023-05-04T05:16:34.660Z,101930.56
2023-05-04T05:19:01.448Z,101926.28
2023-05-04T05:21:28.474Z,101921.97
2023-05-04T05:23:55.342Z,101916.81
2023-05-04T05:26:22.167Z,101923.97
2023-05-04T05:28:51.441Z,101921.44
2023-05-04T05:31:18.221Z,101920.69
2023-05-04T05:33:45.187Z,101913.81
2023-05-04T05:36:11.948Z,101927.22
2023-05-04T05:38:39.113Z,101919.31
2023-05-04T05:41:05.884Z,101919.31
2023-05-04T05:43:33.443Z,101926.44
2023-05-04T05:46:00.507Z,101924.63
2023-05-04T05:48:27.381Z,101922.88
2023-05-04T05:50:54.286Z,101926.47
2023-05-04T05:53:21.087Z,101927.38
2023-05-04T05:55:47.898Z,101925.63
2023-05-04T05:58:14.671Z,101925.63
2023-05-04T06:00:41.500Z,101929.19
2023-05-04T06:03:08.488Z,101923.03
2023-05-04T06:05:35.364Z,101929.28
2023-05-04T06:08:02.196Z,101928.47
2023-05-04T06:10:28.976Z,101932.09
2023-05-04T06:12:55.933Z,101928.66
2023-05-04T06:15:22.705Z,101926.94
2023-05-04T06:17:49.773Z,101934.97
2023-05-04T06:20:16.695Z,101926.22
2023-05-04T06:22:43.550Z,101914.72
2023-05-04T06:25:11.411Z,101920.13
2023-05-04T06:27:38.168Z,101915.75
2023-05-04T06:30:06.609Z,101918.47
2023-05-04T06:32:33.779Z,101911.41
2023-05-04T06:35:02.233Z,101904.38
2023-05-04T06:37:29.033Z,101918.59
2023-05-04T06:39:56.043Z,101915.97
2023-05-04T06:42:22.810Z,101916.88
2023-05-04T06:44:49.602Z,101916.94
2023-05-04T06:47:16.453Z,101922.34
2023-05-04T06:49:43.213Z,101913.50
2023-05-04T06:52:10.423Z,101910.88
2023-05-04T06:54:37.248Z,101916.25
2023-05-04T06:57:04.430Z,101913.63
2023-05-04T06:59:31.297Z,101914.59
2023-05-04T07:01:58.135Z,101909.31
2023-05-04T07:04:24.904Z,101920.88
2023-05-04T07:06:52.128Z,101916.50
2023-05-04T07:09:19.897Z,101911.16
2023-05-04T07:11:48.515Z,101915.59
2023-05-04T07:14:18.551Z,101917.41
2023-05-04T07:16:45.523Z,101912.97
2023-05-04T07:19:12.666Z,101910.34
2023-05-04T07:21:39.436Z,101907.69
2023-05-04T07:24:07.122Z,101905.00
2023-05-04T07:26:34.089Z,101890.75
2023-05-04T07:29:00.927Z,101902.31
2023-05-04T07:31:29.504Z,101890.78
2023-05-04T07:33:57.379Z,101897.88
2023-05-04T07:36:26.454Z,101893.44
2023-05-04T07:38:53.893Z,101885.41
2023-05-04T07:41:20.839Z,101889.03
2023-05-04T07:43:47.726Z,101877.47
2023-05-04T07:46:14.498Z,101884.56
2023-05-04T07:48:41.384Z,101876.53
2023-05-04T07:51:16.169Z,101876.53
2023-05-04T07:53:43.575Z,101875.63
2023-05-04T07:56:12.581Z,101878.28
2023-05-04T07:58:39.657Z,101874.72
2023-05-04T08:01:06.511Z,101881.81
2023-05-04T08:03:33.351Z,101870.19
2023-05-04T08:06:00.242Z,101871.06
2023-05-04T08:08:27.091Z,101863.94
2023-05-04T08:10:54.970Z,101864.78
2023-05-04T08:13:23.182Z,101863.84
2023-05-04T08:15:49.933Z,101860.25
2023-05-04T08:18:16.722Z,101856.69
2023-05-04T08:20:43.609Z,101864.66
2023-05-04T08:23:10.434Z,101862.81
2023-05-04T08:25:37.198Z,101859.19
2023-05-04T08:28:04.758Z,101853.78
2023-05-04T08:30:31.548Z,101845.69
2023-05-04T08:32:59.194Z,101850.97
2023-05-04T08:35:27.810Z,101847.38
2023-05-04T08:37:54.675Z,101841.94
2023-05-04T08:40:23.964Z,101838.25
2023-05-04T08:42:52.943Z,101829.28
2023-05-04T08:45:19.785Z,101839.94
2023-05-04T08:47:46.739Z,101835.41
2023-05-04T08:50:13.624Z,101831.78
2023-05-04T08:52:46.580Z,101821.88
2023-05-04T08:55:16.186Z,101817.38
2023-05-04T08:57:44.596Z,101818.19
2023-05-04T09:00:15.371Z,101822.56
2023-05-04T09:02:43.121Z,101819.78
2023-05-04T09:05:11.957Z,101814.31
2023-05-04T09:07:38.798Z,101809.72
2023-05-04T09:10:06.499Z,101801.56
2023-05-04T09:12:33.417Z,101803.22
2023-05-04T09:15:02.291Z,101806.63
2023-05-04T09:17:29.646Z,101801.16
2023-05-04T09:20:01.546Z,101797.44
2023-05-04T09:22:30.311Z,101808.00
2023-05-04T09:25:13.591Z,101798.94
2023-05-04T09:27:42.584Z,101797.09
2023-05-04T09:30:10.817Z,101788.00
2023-05-04T09:32:46.663Z,101792.38
2023-05-04T09:35:29.153Z,101790.53
2023-05-04T09:38:00.168Z,101782.41
2023-05-04T09:40:42.867Z,101782.34
2023-05-04T09:43:10.703Z,101781.47
2023-05-04T09:45:43.786Z,101782.31
2023-05-04T09:48:25.351Z,101782.19
2023-05-04T09:50:58.271Z,101771.44
2023-05-04T09:53:32.133Z,101764.19
2023-05-04T09:56:27.651Z,101767.63
2023-05-04T09:59:00.321Z,101764.78
2023-05-04T10:01:29.646Z,101761.09
2023-05-04T10:03:56.885Z,101763.63
2023-05-04T10:06:24.638Z,101754.56
2023-05-04T10:08:51.515Z,101758.03
2023-05-04T10:11:20.159Z,101752.53
2023-05-04T10:13:50.384Z,101745.25
2023-05-04T10:16:38.274Z,101742.38
2023-05-04T10:19:22.933Z,101752.03
2023-05-04T10:22:55.089Z,101751.88
2023-05-04T10:25:52.786Z,101748.19
2023-05-04T10:28:39.509Z,101739.13
2023-05-04T10:31:07.392Z,101740.81
2023-05-04T10:33:43.988Z,101736.22
2023-05-04T10:36:11.603Z,101740.63
2023-05-04T10:38:40.442Z,101735.16
2023-05-04T10:41:18.474Z,101728.75
2023-05-04T10:43:50.931Z,101718.81
2023-05-04T10:46:22.725Z,101721.41
2023-05-04T10:48:50.782Z,101711.53
2023-05-04T10:51:30.060Z,101707.91
2023-05-04T10:54:01.375Z,101704.38
2023-05-04T10:56:29.402Z,101706.91
2023-05-04T10:58:56.477Z,101693.25
2023-05-04T11:01:23.972Z,101694.03
2023-05-04T11:03:55.206Z,101698.31
2023-05-04T11:06:25.482Z,101699.03
2023-05-04T11:09:03.360Z,101703.41
2023-05-04T11:11:30.311Z,101684.41
2023-05-04T11:13:58.689Z,101692.34
2023-05-04T11:16:27.183Z,101681.41
2023-05-04T11:18:54.791Z,101686.63
2023-05-04T11:21:27.924Z,101673.00
2023-05-04T11:23:59.572Z,101668.44
2023-05-04T11:26:29.973Z,101672.88
2023-05-04T11:28:57.025Z,101673.66
2023-05-04T11:31:23.843Z,101670.81
2023-05-04T11:33:54.576Z,101667.09
2023-05-04T11:36:22.565Z,101653.44
2023-05-04T11:38:50.054Z,101660.44
2023-05-04T11:41:16.924Z,101648.53
2023-05-04T11:43:45.228Z,101642.94
2023-05-04T11:46:12.969Z,101638.25
2023-05-04T11:48:40.802Z,101628.19
2023-05-04T11:51:07.726Z,101634.31
2023-05-04T11:53:39.557Z,101626.91
2023-05-04T11:56:08.815Z,101624.97
2023-05-04T11:58:36.508Z,101618.53
2023-05-04T12:01:04.180Z,101604.00
2023-05-04T12:03:43.934Z,101613.59
2023-05-04T12:06:18.882Z,101612.41
2023-05-04T12:08:45.850Z,101611.22
2023-05-04T12:11:21.496Z,101610.03
2023-05-04T12:13:49.821Z,101607.22
2023-05-04T12:18:48.435Z,101606.03
2023-05-04T12:21:19.155Z,101604.03
2023-05-04T12:23:47.373Z,101600.25
2023-05-04T12:26:16.273Z,101591.84
2023-05-04T12:28:45.401Z,101584.28
2023-05-04T12:31:12.364Z,101585.63
2023-05-04T12:33:39.270Z,101587.13
2023-05-04T12:36:06.704Z,101585.00
2023-05-04T12:38:33.937Z,101582.00
2023-05-04T12:41:04.195Z,101575.34
2023-05-04T12:43:32.196Z,101568.72
2023-05-04T12:45:59.259Z,101573.06
2023-05-04T12:48:28.892Z,101565.78
2023-05-04T12:50:56.038Z,101568.41
2023-05-04T12:53:25.651Z,101567.31
2023-05-04T12:55:52.523Z,101558.88
2023-05-04T12:58:19.478Z,101554.94
2023-05-04T13:00:46.333Z,101559.97
2023-05-04T13:03:13.708Z,101557.81
2023-05-04T13:05:40.650Z,101564.75
2023-05-04T13:08:07.683Z,101554.41
2023-05-04T13:10:34.477Z,101553.09
2023-05-04T13:13:01.379Z,101543.66
2023-05-04T13:15:28.213Z,101546.22
2023-05-04T13:17:55.096Z,101545.09
2023-05-04T13:20:22.648Z,101540.28
2023-05-04T13:22:50.514Z,101535.75
2023-05-04T13:25:17.405Z,101533.88
2023-05-04T13:27:44.344Z,101537.38
2023-05-04T13:30:11.955Z,101529.22
2023-05-04T13:32:38.789Z,101532.84
2023-05-04T13:35:06.668Z,101534.75
2023-05-04T13:37:33.825Z,101522.03
2023-05-04T13:40:01.632Z,101517.44
2023-05-04T13:42:28.538Z,101514.69
2023-05-04T13:44:55.343Z,101509.19
2023-05-04T13:47:23.653Z,101498.44
2023-05-04T13:49:50.949Z,101494.84
2023-05-04T13:52:17.700Z,101497.56
2023-05-04T13:54:44.632Z,101491.25
2023-05-04T13:57:11.390Z,101484.03
2023-05-04T13:59:38.188Z,101486.75
2023-05-04T14:02:05.121Z,101475.09
2023-05-04T14:04:31.990Z,101477.00
2023-05-04T14:06:59.844Z,101467.16
2023-05-04T14:09:26.838Z,101459.94
2023-05-04T14:11:59.013Z,101457.22
2023-05-04T14:14:26.026Z,101450.06
2023-05-04T14:20:16.042Z,101450.06
2023-05-04T14:22:45.897Z,101448.44
2023-05-04T14:26:36.260Z,101430.56
2023-05-04T14:29:32.762Z,101430.84
2023-05-04T14:32:02.762Z,101424.63
2023-05-04T14:37:23.585Z,101418.41
2023-05-04T14:39:51.672Z,101425.72
2023-05-04T14:42:18.522Z,101415.91
2023-05-04T14:44:47.913Z,101417.72
2023-05-04T14:47:14.757Z,101418.69
2023-05-04T14:49:42.846Z,101420.41
2023-05-04T14:52:09.821Z,101413.28
2023-05-04T14:54:37.668Z,101408.66
2023-05-04T14:57:05.004Z,101412.31
2023-05-04T14:59:31.940Z,101412.31
2023-05-04T15:01:58.683Z,101408.88
2023-05-04T15:04:25.630Z,101398.13
2023-05-04T15:06:52.562Z,101406.25
2023-05-04T15:09:19.319Z,101398.25
2023-05-04T15:11:46.172Z,101398.34
2023-05-04T15:14:13.242Z,101393.94
2023-05-04T15:16:40.296Z,101388.50
2023-05-04T15:19:07.814Z,101383.94
2023-05-04T15:21:34.583Z,101376.75
2023-05-04T15:24:01.893Z,101375.66
2023-05-04T15:26:31.311Z,101372.03
2023-05-04T15:28:58.414Z,101372.81
2023-05-04T15:31:25.420Z,101368.38
2023-05-04T15:33:52.189Z,101361.94
2023-05-04T15:36:23.413Z,101358.31
2023-05-04T15:38:50.190Z,101368.09
2023-05-04T15:41:16.960Z,101353.63
2023-05-04T15:43:43.797Z,101357.88
2023-05-04T15:46:10.597Z,101362.25
2023-05-04T15:48:37.398Z,101348.69
2023-05-04T15:51:10.227Z,101345.91
2023-05-04T15:53:39.929Z,101351.44
2023-05-04T15:56:09.943Z,101346.19
2023-05-04T15:58:36.805Z,101338.22
2023-05-04T16:01:09.183Z,101340.16
2023-05-04T16:03:41.450Z,101343.91
2023-05-04T16:09:30.498Z,101331.53
2023-05-04T16:12:00.424Z,101337.03
2023-05-04T16:14:33.600Z,101328.03
2023-05-04T16:22:10.935Z,101326.53
2023-05-04T16:24:43.832Z,101326.66
2023-05-04T16:27:10.623Z,101328.63
2023-05-04T16:29:37.441Z,101318.91
2023-05-04T16:32:04.639Z,101315.44
2023-05-04T16:34:31.463Z,101308.47
2023-05-04T16:36:58.218Z,101308.56
2023-05-04T16:39:31.535Z,101308.66
2023-05-04T16:41:58.659Z,101299.78
2023-05-04T16:44:26.137Z,101300.81
2023-05-04T16:46:54.357Z,101297.22
2023-05-04T16:49:24.115Z,101300.09
2023-05-04T16:51:53.414Z,101290.25
2023-05-04T16:54:20.965Z,101296.69
2023-05-04T16:56:48.080Z,101291.44
2023-05-04T16:59:14.949Z,101297.78
2023-05-04T17:01:42.645Z,101297.84
2023-05-04T17:04:10.707Z,101301.47
2023-05-04T17:06:37.995Z,101290.84
2023-05-04T17:09:05.584Z,101290.94
2023-05-04T17:11:32.602Z,101290.22
2023-05-04T17:13:59.963Z,101283.97
2023-05-04T17:16:26.976Z,101277.88
2023-05-04T17:18:53.794Z,101280.78
2023-05-04T17:21:20.621Z,101280.03
2023-05-04T17:23:47.396Z,101275.72
2023-05-04T17:26:14.132Z,101276.72
2023-05-04T17:28:40.890Z,101284.16
2023-05-04T17:31:12.286Z,101276.09
2023-05-04T17:33:39.654Z,101283.47
2023-05-04T17:36:07.645Z,101281.84
2023-05-04T17:38:34.578Z,101285.63
2023-05-04T17:41:01.396Z,101290.34
2023-05-04T17:43:28.292Z,101289.50
2023-05-04T17:45:55.944Z,101299.63
2023-05-04T17:48:24.004Z,101299.88
2023-05-04T17:50:51.465Z,101309.03
2023-05-04T17:53:18.575Z,101306.47
2023-05-04T17:55:45.486Z,101315.69
2023-05-04T17:58:12.239Z,101311.28
2023-05-04T18:00:39.057Z,101308.75
2023-05-04T18:03:05.863Z,101308.88
2023-05-04T18:05:32.845Z,101309.00
2023-05-04T18:07:59.650Z,101307.41
2023-05-04T18:10:26.908Z,101315.75
2023-05-04T18:12:56.172Z,101314.09
2023-05-04T18:15:24.203Z,101316.06
2023-05-04T18:17:51.076Z,101312.66
2023-05-04T18:20:18.351Z,101320.94
2023-05-04T18:22:46.521Z,101317.53
2023-05-04T18:25:15.238Z,101317.72
2023-05-04T18:27:42.234Z,101315.22
2023-05-04T18:30:10.757Z,101317.25
2023-05-04T18:32:37.751Z,101321.09
2023-05-04T18:35:04.908Z,101319.44
2023-05-04T18:37:31.702Z,101324.16
2023-05-04T18:39:59.024Z,101325.19
2023-05-04T18:42:26.024Z,101330.78
2023-05-04T18:44:53.631Z,101336.34
2023-05-04T18:47:20.865Z,101331.13
2023-05-04T18:49:52.425Z,101332.19
2023-05-04T18:52:19.279Z,101337.69
2023-05-04T18:54:46.433Z,101336.94
2023-05-04T18:57:14.120Z,101344.34
2023-05-04T18:59:40.969Z,101345.38
2023-05-04T19:02:08.408Z,101336.56
2023-05-04T19:04:35.455Z,101342.09
2023-05-04T19:07:02.198Z,101335.06
2023-05-04T19:09:29.048Z,101344.16
2023-05-04T19:11:55.898Z,101343.38
2023-05-04T19:14:22.641Z,101346.22
2023-05-04T19:16:50.366Z,101340.94
2023-05-04T19:19:17.652Z,101344.66
2023-05-04T19:21:44.412Z,101341.25
2023-05-04T19:24:11.195Z,101340.47
2023-05-04T19:26:38.995Z,101336.16
2023-05-04T19:29:05.855Z,101335.38
2023-05-04T19:31:32.771Z,101340.88
2023-05-04T19:33:59.570Z,101338.28
2023-05-04T19:36:27.211Z,101347.31
2023-05-04T19:38:54.220Z,101340.28
2023-05-04T19:41:21.225Z,101343.06
2023-05-04T19:43:47.982Z,101336.94
2023-05-04T19:46:14.828Z,101344.25
2023-05-04T19:48:41.803Z,101341.63
2023-05-04T19:51:08.570Z,101342.66
2023-05-04T19:53:35.404Z,101340.09
2023-05-04T19:56:02.171Z,101337.50
2023-05-04T19:58:30.769Z,101339.41
2023-05-04T20:00:57.961Z,101336.84
2023-05-04T20:03:24.868Z,101341.50
2023-05-04T20:05:52.249Z,101342.50
2023-05-04T20:08:19.456Z,101340.78
2023-05-04T20:10:46.277Z,101336.41
2023-05-04T20:13:13.647Z,101341.03
2023-05-04T20:15:40.581Z,101338.47
2023-05-04T20:18:07.429Z,101337.69
2023-05-04T20:20:34.354Z,101334.22
2023-05-04T20:23:01.150Z,101340.59
2023-05-04T20:25:27.981Z,101331.66
2023-05-04T20:27:54.843Z,101334.44
2023-05-04T20:30:21.690Z,101322.91
2023-05-04T20:32:49.217Z,101329.31
2023-05-04T20:35:17.063Z,101331.25
2023-05-04T20:37:44.201Z,101325.13
2023-05-04T20:40:12.057Z,101332.34
2023-05-04T20:42:39.149Z,101331.59
2023-05-04T20:45:07.465Z,101326.31
2023-05-04T20:47:34.576Z,101329.06
2023-05-04T20:50:01.410Z,101328.31
2023-05-04T20:52:28.585Z,101322.13
2023-05-04T20:54:55.471Z,101324.03
2023-05-04T20:57:22.294Z,101314.28
2023-05-04T20:59:49.178Z,101317.06
2023-05-04T21:02:16.026Z,101312.63
2023-05-04T21:04:43.321Z,101312.66
2023-05-04T21:07:10.124Z,101306.50
2023-05-04T21:09:36.936Z,101304.78
2023-05-04T21:12:03.881Z,101312.00
2023-05-04T21:14:30.728Z,101314.78
2023-05-04T21:16:57.512Z,101306.81
2023-05-04T21:19:24.298Z,101307.81
2023-05-04T21:21:51.140Z,101306.06
2023-05-04T21:24:17.932Z,101298.09
2023-05-04T21:26:45.877Z,101289.16
2023-05-04T21:29:13.023Z,101293.72
2023-05-04T21:31:40.291Z,101288.44
2023-05-04T21:34:08.193Z,101293.03
2023-05-04T21:36:35.447Z,101295.72
2023-05-04T21:39:02.225Z,101299.34
2023-05-04T21:41:29.804Z,101298.56
2023-05-04T21:43:56.660Z,101290.59
2023-05-04T21:46:23.493Z,101299.53
2023-05-04T21:48:51.664Z,101299.63
2023-05-04T21:51:20.630Z,101307.72
2023-05-04T21:53:47.739Z,101301.53
2023-05-04T21:56:14.660Z,101287.25
2023-05-04T21:58:42.030Z,101303.44
2023-05-04T22:01:09.468Z,101298.16
2023-05-04T22:03:36.413Z,101308.09
2023-05-04T22:06:03.390Z,101299.22
2023-05-04T22:08:30.523Z,101294.84
2023-05-04T22:10:58.583Z,101303.88
2023-05-04T22:13:26.197Z,101299.50
2023-05-04T22:15:53.724Z,101305.84
2023-05-04T22:18:20.947Z,101300.56
2023-05-04T22:20:47.867Z,101295.25
2023-05-04T22:23:14.732Z,101293.56
2023-05-04T22:25:41.944Z,101291.88
2023-05-04T22:28:08.730Z,101283.84
2023-05-04T22:30:35.807Z,101292.88
2023-05-04T22:33:02.817Z,101290.28
2023-05-04T22:35:31.526Z,101288.53
2023-05-04T22:37:58.520Z,101286.81
2023-05-04T22:40:25.409Z,101286.88
2023-05-04T22:42:52.348Z,101286.03
2023-05-04T22:45:19.241Z,101280.72
2023-05-04T22:47:48.668Z,101279.03
2023-05-04T22:50:15.562Z,101276.44
2023-05-04T22:52:42.529Z,101278.25
2023-05-04T22:55:09.504Z,101281.91
2023-05-04T22:57:36.713Z,101281.97
2023-05-04T23:00:07.491Z,101282.06
2023-05-04T23:02:42.353Z,101287.44
2023-05-04T23:05:09.282Z,101286.72
2023-05-04T23:07:36.150Z,101286.72
2023-05-04T23:10:06.775Z,101281.44
2023-05-04T23:12:33.746Z,101279.69
2023-05-04T23:15:00.498Z,101276.13
2023-05-04T23:17:27.324Z,101284.16
2023-05-04T23:19:54.079Z,101278.88
2023-05-04T23:22:20.848Z,101284.31
2023-05-04T23:24:47.639Z,101275.41
2023-05-04T23:27:14.509Z,101274.59
2023-05-04T23:29:41.340Z,101272.88
2023-05-04T23:32:08.249Z,101271.16
2023-05-04T23:34:35.110Z,101272.09
2023-05-04T23:37:01.920Z,101273.06
2023-05-04T23:39:28.739Z,101263.34
2023-05-04T23:41:55.500Z,101262.53
2023-05-04T23:44:22.365Z,101270.63
2023-05-04T23:46:49.147Z,101269.78
2023-05-04T23:49:16.392Z,101265.34
2023-05-04T23:51:43.276Z,101267.22
2023-05-04T23:54:10.434Z,101263.72
2023-05-04T23:56:39.497Z,101263.78
2023-05-04T23:59:06.324Z,101267.41
